Date,TemperatureHighF,TemperatureAvgF,TemperatureLowF,DewpointHighF,DewpointAvgF,DewpointLowF,HumidityHigh,HumidityAvg,HumidityLow,PressureMaxIn,PressureMinIn,WindSpeedMaxMPH,WindSpeedAvgMPH,GustSpeedMaxMPH,PrecipitationSumIn
2013-10-1,47.8,47.8,47.8,44.7,44.7,44.7,89,89,89,30.08,30.08,9,9,9,0.00
2013-10-2,47.8,47.8,47.8,44.7,44.7,44.7,89,89,89,30.08,30.08,9,9,9,0.00
2013-10-3,64.4,58.7,47.8,61.1,56.6,44.7,95,93,89,30.08,29.53,15,8,15,1.39
2013-10-4,61.9,58.0,56.1,57.4,55.8,53.3,97,93,82,29.84,29.53,23,5,23,0.06
2013-10-5,60.0,56.6,53.7,55.8,53.2,50.3,94,89,79,30.09,29.84,18,9,18,0.00
2013-10-6,62.8,58.7,56.3,60.0,56.7,54.9,96,93,87,30.10,30.05,22,7,22,0.02
2013-10-7,62.6,60.6,59.3,59.5,58.2,57.0,96,92,88,30.08,29.98,29,12,29,0.07
2013-10-8,59.5,56.2,53.1,57.7,52.9,47.7,95,89,77,30.18,29.97,35,17,35,0.01
2013-10-9,53.4,50.2,44.2,49.4,43.5,34.8,90,78,64,30.20,29.98,45,20,45,0.01
2013-10-10,54.2,47.3,40.4,38.9,37.2,35.3,85,69,52,30.46,30.21,20,5,20,0.00
2013-10-11,44.9,40.0,36.3,39.7,36.0,33.6,92,86,80,30.53,30.45,13,2,13,0.00
2013-10-12,44.9,44.9,44.9,39.7,39.7,39.7,82,82,82,30.53,30.53,6,6,6,0.00
2013-10-13,44.9,44.9,44.9,39.7,39.7,39.7,82,82,82,30.53,30.53,6,6,6,0.00
2013-10-14,52.7,49.9,44.9,51.0,46.3,39.7,94,87,82,30.53,29.95,14,5,14,0.06
2013-10-15,55.7,50.4,47.3,48.2,45.8,43.5,92,84,74,29.99,29.93,16,5,16,0.00
2013-10-16,52.6,48.9,45.1,48.8,46.3,43.5,96,91,84,29.98,29.61,26,9,26,0.33
2013-10-17,52.9,49.7,47.2,51.2,48.3,46.1,97,95,93,29.97,29.66,15,4,15,0.24
2013-10-18,54.4,50.8,48.8,52.4,48.9,47.1,96,93,91,30.00,29.64,29,13,29,0.01
2013-10-19,57.2,54.9,53.8,55.8,53.4,51.9,96,95,92,29.64,29.43,21,8,21,0.62
2013-10-20,57.4,54.9,53.7,54.8,53.0,51.4,96,93,90,29.47,29.37,20,8,20,0.20
2013-10-21,55.2,53.7,52.3,53.3,51.6,50.6,96,93,88,29.51,29.25,23,8,23,0.43
2013-10-22,59.2,57.7,52.7,57.2,55.2,51.5,97,91,86,29.25,29.06,27,8,27,0.23
2013-10-23,57.7,53.0,47.6,55.6,49.0,42.3,96,86,71,29.58,28.98,45,19,45,0.06
2013-10-24,57.4,50.7,47.6,49.1,46.3,44.0,94,85,71,29.89,29.58,27,11,27,0.00
2013-10-25,58.7,53.4,49.0,55.5,50.8,45.0,95,91,83,29.83,29.30,27,14,27,0.08
2013-10-26,55.4,52.7,50.2,53.5,49.1,46.9,95,88,77,29.44,29.14,36,11,36,0.11
2013-10-27,54.5,51.9,48.9,49.9,48.1,46.1,93,87,78,29.15,28.83,47,19,47,0.09
2013-10-28,51.6,50.2,48.3,48.6,46.6,43.8,93,87,81,29.36,28.89,28,15,28,0.02
2013-10-29,51.6,47.8,41.9,45.2,42.8,38.9,91,83,74,29.90,29.36,31,13,31,0.03
2013-10-30,54.1,48.8,42.3,52.2,45.4,39.4,96,88,75,29.91,29.60,43,12,43,0.03
2013-10-31,53.2,49.7,46.0,47.1,44.9,41.1,89,83,75,29.81,29.60,39,17,39,0.01